Colonial Heights, Virginia
Current Conditions -  °F | °C
As of 9:35 AM on Friday 28 Nov 2014 (Local Time) from KPTB Reporting Station
Clear Clear  
Wind Chill: 32°   Ceiling: Unl
Heat Index: 38°   Visibility: 10mi
Dew Point: 24°   Wind: 8mph
Humidity: 56%   Direction: 300°WNW
Pressure: 30.35"   Gusts: NA
Location:  37.25°N, 77.41°W
Report Text: KPTB 281435Z AUTO 30007KT 10SM CLR 03/M05 A3035 RMK AO2 T00341046
Loading
Personal Weather Stations






























Interactive Weather Map New forecast layout! Learn more

10-Day Weather Forecast

Advertisements
Track Severe Weather on mobile